Terminal Aerodrome Forecast
Issued by NWS

Home | Current Version | Previous Version | Text Only | Print | Product List | Glossary On
Versions: 1 2 3 4 5 6 7 8 9 10 11 12 13 14 15 16 17
756
FTUS43 KAPX 110520
TAFMBL
TAF
KMBL 110520Z 1106/1206 34009KT 5SM -SHSN OVC035
     FM111300 33008KT P6SM VCSH BKN035
     FM111900 30009KT P6SM BKN035
     FM120200 27006KT P6SM BKN035
      AMD LTD TO CLD VIS AND WIND=

USA.gov is the U.S. government's official web portal to all federal, state and local government web resources and services.